createdAt,value
2023-05-21T00:00:03.355Z,32.31
2023-05-21T00:01:03.354Z,32.33
2023-05-21T00:02:03.349Z,32.39
2023-05-21T00:03:03.389Z,32.36
2023-05-21T00:04:03.340Z,32.32
2023-05-21T00:05:03.348Z,32.35
2023-05-21T00:06:03.339Z,32.30
2023-05-21T00:07:03.320Z,32.32
2023-05-21T00:08:03.287Z,32.33
2023-05-21T00:09:03.297Z,32.42
2023-05-21T00:10:03.312Z,32.36
2023-05-21T00:11:03.269Z,32.37
2023-05-21T00:12:03.241Z,32.36
2023-05-21T00:13:03.248Z,32.39
2023-05-21T00:14:03.273Z,32.37
2023-05-21T00:15:03.252Z,32.39
2023-05-21T00:16:03.306Z,32.33
2023-05-21T00:17:03.216Z,32.37
2023-05-21T00:18:03.210Z,32.40
2023-05-21T00:19:03.233Z,32.36
2023-05-21T00:20:03.193Z,32.29
2023-05-21T00:21:03.217Z,32.33
2023-05-21T00:22:03.202Z,32.42
2023-05-21T00:23:03.180Z,32.43
2023-05-21T00:24:03.192Z,32.40
2023-05-21T00:25:03.214Z,32.44
2023-05-21T00:26:03.161Z,32.36
2023-05-21T00:27:03.172Z,32.37
2023-05-21T00:28:03.132Z,32.41
2023-05-21T00:29:03.169Z,32.43
2023-05-21T00:30:03.146Z,32.41
2023-05-21T00:31:03.099Z,32.40
2023-05-21T00:32:03.512Z,32.46
2023-05-21T00:33:03.236Z,32.44
2023-05-21T00:34:03.101Z,32.37
2023-05-21T00:35:03.902Z,32.44
2023-05-21T00:36:03.099Z,32.38
2023-05-21T00:37:03.085Z,32.41
2023-05-21T00:38:03.103Z,32.34
2023-05-21T00:39:03.098Z,32.34
2023-05-21T00:40:03.082Z,32.40
2023-05-21T00:41:03.054Z,32.41
2023-05-21T00:42:03.042Z,32.41
2023-05-21T00:43:03.042Z,32.46
2023-05-21T00:44:03.000Z,32.42
2023-05-21T00:45:02.985Z,32.40
2023-05-21T00:46:03.068Z,32.34
2023-05-21T00:47:02.986Z,32.38
2023-05-21T00:48:03.062Z,32.40
2023-05-21T00:49:02.995Z,32.38
2023-05-21T00:50:03.009Z,32.43
2023-05-21T00:51:03.012Z,32.41
2023-05-21T00:52:03.007Z,32.31
2023-05-21T00:53:03.028Z,32.41
2023-05-21T00:54:03.008Z,32.33
2023-05-21T00:55:03.022Z,32.39
2023-05-21T00:56:02.970Z,32.45
2023-05-21T00:57:03.011Z,32.44
2023-05-21T00:58:03.019Z,32.41
2023-05-21T00:59:03.006Z,32.39
2023-05-21T01:00:03.033Z,32.41
2023-05-21T01:01:03.125Z,32.37
2023-05-21T01:02:03.069Z,32.45
2023-05-21T01:03:03.080Z,32.42
2023-05-21T01:04:03.006Z,32.38
2023-05-21T01:05:03.038Z,32.39
2023-05-21T01:06:03.032Z,32.36
2023-05-21T01:07:03.031Z,32.42
2023-05-21T01:08:03.012Z,32.43
2023-05-21T01:09:04.968Z,32.45
2023-05-21T01:10:03.038Z,32.50
2023-05-21T01:11:03.060Z,32.41
2023-05-21T01:12:03.065Z,32.36
2023-05-21T01:13:03.068Z,32.42
2023-05-21T01:14:03.078Z,32.46
2023-05-21T01:15:03.067Z,32.40
2023-05-21T01:16:03.080Z,32.43
2023-05-21T01:17:03.150Z,32.35
2023-05-21T01:18:03.169Z,32.39
2023-05-21T01:19:03.332Z,32.42
2023-05-21T01:20:03.223Z,32.45
2023-05-21T01:21:03.194Z,32.39
2023-05-21T01:22:03.132Z,32.45
2023-05-21T01:23:03.158Z,32.36
2023-05-21T01:24:03.182Z,32.38
2023-05-21T01:25:03.203Z,32.39
2023-05-21T01:26:03.224Z,32.41
2023-05-21T01:27:03.173Z,32.41
2023-05-21T01:28:03.222Z,32.42
2023-05-21T01:29:03.223Z,32.49
2023-05-21T01:30:03.244Z,32.43
2023-05-21T01:31:03.261Z,32.40
2023-05-21T01:32:03.248Z,32.45
2023-05-21T01:33:03.461Z,32.46
2023-05-21T01:34:03.288Z,32.46
2023-05-21T01:35:03.339Z,32.40
2023-05-21T01:36:03.321Z,32.40
2023-05-21T01:37:03.308Z,32.42
2023-05-21T01:38:03.333Z,32.43
2023-05-21T01:39:03.315Z,32.44
2023-05-21T01:40:03.350Z,32.43
2023-05-21T01:41:03.334Z,32.42
2023-05-21T01:42:03.379Z,32.42
2023-05-21T01:43:03.376Z,32.44
2023-05-21T01:44:03.399Z,32.39
2023-05-21T01:45:03.554Z,32.40
2023-05-21T01:46:03.444Z,32.44
2023-05-21T01:47:03.473Z,32.43
2023-05-21T01:48:03.528Z,32.40
2023-05-21T01:49:03.505Z,32.46
2023-05-21T01:50:03.519Z,32.40
2023-05-21T01:51:03.554Z,32.45
2023-05-21T01:52:03.536Z,32.41
2023-05-21T01:53:03.600Z,32.38
2023-05-21T01:54:03.606Z,32.43
2023-05-21T01:55:03.632Z,32.42
2023-05-21T01:56:03.641Z,32.48
2023-05-21T01:57:03.649Z,32.44
2023-05-21T01:58:03.711Z,32.47
2023-05-21T01:59:03.673Z,32.48
2023-05-21T02:00:03.693Z,32.48
2023-05-21T02:01:03.740Z,32.47
2023-05-21T02:02:03.816Z,32.44
2023-05-21T02:03:03.918Z,32.47
2023-05-21T02:04:03.850Z,32.48
2023-05-21T02:05:03.836Z,32.54
2023-05-21T02:06:03.836Z,32.42
2023-05-21T02:07:03.862Z,32.45
2023-05-21T02:08:03.855Z,32.58
2023-05-21T02:09:03.936Z,32.51
2023-05-21T02:10:03.950Z,32.45
2023-05-21T02:11:03.988Z,32.42
2023-05-21T02:12:04.015Z,32.51
2023-05-21T02:13:03.994Z,32.51
2023-05-21T02:14:04.109Z,32.46
2023-05-21T02:15:04.052Z,32.48
2023-05-21T02:16:04.220Z,32.51
2023-05-21T02:17:04.120Z,32.55
2023-05-21T02:18:04.182Z,32.48
2023-05-21T02:19:04.223Z,32.52
2023-05-21T02:20:04.140Z,32.46
2023-05-21T02:21:04.238Z,32.49
2023-05-21T02:22:04.257Z,32.55
2023-05-21T02:23:04.333Z,32.51
2023-05-21T02:24:04.282Z,32.51
2023-05-21T02:25:04.314Z,32.53
2023-05-21T02:26:04.400Z,32.49
2023-05-21T02:27:04.394Z,32.53
2023-05-21T02:28:04.462Z,32.53
2023-05-21T02:29:04.469Z,32.58
2023-05-21T02:30:04.473Z,32.58
2023-05-21T02:31:04.509Z,32.52
2023-05-21T02:32:04.528Z,32.53
2023-05-21T02:33:04.729Z,32.55
2023-05-21T02:34:04.642Z,32.50
2023-05-21T02:35:04.654Z,32.53
2023-05-21T02:36:04.665Z,32.47
2023-05-21T02:37:04.686Z,32.57
2023-05-21T02:38:04.677Z,32.53
2023-05-21T02:39:04.733Z,32.46
2023-05-21T02:40:04.797Z,32.53
2023-05-21T02:41:04.769Z,32.53
2023-05-21T02:42:04.823Z,32.52
2023-05-21T02:43:04.816Z,32.54
2023-05-21T02:44:04.921Z,32.56
2023-05-21T02:45:04.926Z,32.54
2023-05-21T02:46:05.060Z,32.56
2023-05-21T02:47:04.979Z,32.63
2023-05-21T02:48:05.100Z,32.59
2023-05-21T02:49:05.046Z,32.59
2023-05-21T02:50:05.099Z,32.60
2023-05-21T02:51:05.161Z,32.62
2023-05-21T02:52:05.179Z,32.53
2023-05-21T02:53:05.215Z,32.60
2023-05-21T02:54:05.275Z,32.59
2023-05-21T02:55:05.269Z,32.51
2023-05-21T02:56:05.319Z,32.59
2023-05-21T02:57:05.389Z,32.53
2023-05-21T02:58:05.409Z,32.62
2023-05-21T02:59:05.436Z,32.56
2023-05-21T03:00:05.501Z,32.57
2023-05-21T03:01:05.537Z,32.59
2023-05-21T03:02:05.615Z,32.61
2023-05-21T03:03:05.711Z,32.58
2023-05-21T03:04:05.660Z,32.61
2023-05-21T03:05:05.718Z,32.54
2023-05-21T03:06:05.733Z,32.58
2023-05-21T03:07:05.769Z,32.58
2023-05-21T03:08:05.841Z,32.60
2023-05-21T03:09:05.861Z,32.67
2023-05-21T03:10:05.880Z,32.62
2023-05-21T03:11:05.906Z,32.61
2023-05-21T03:12:05.972Z,32.54
2023-05-21T03:13:07.466Z,32.53
2023-05-21T03:14:06.016Z,32.58
2023-05-21T03:15:06.001Z,32.57
2023-05-21T03:16:05.953Z,32.57
2023-05-21T03:17:06.341Z,32.57
2023-05-21T03:18:05.983Z,32.64
2023-05-21T03:19:06.013Z,32.59
2023-05-21T03:20:05.916Z,32.59
2023-05-21T03:21:05.937Z,32.57
2023-05-21T03:22:05.939Z,32.57
2023-05-21T03:23:05.945Z,32.61
2023-05-21T03:24:05.937Z,32.61
2023-05-21T03:25:05.922Z,32.62
2023-05-21T03:26:05.890Z,32.61
2023-05-21T03:27:05.908Z,32.59
2023-05-21T03:28:05.922Z,32.61
2023-05-21T03:29:05.842Z,32.64
2023-05-21T03:30:06.716Z,32.57
2023-05-21T03:31:05.899Z,32.58
2023-05-21T03:32:05.909Z,32.62
2023-05-21T03:33:05.876Z,32.62
2023-05-21T03:34:05.849Z,32.58
2023-05-21T03:35:05.823Z,32.51
2023-05-21T03:36:05.818Z,32.58
2023-05-21T03:37:05.836Z,32.66
2023-05-21T03:38:05.842Z,32.58
2023-05-21T03:39:05.845Z,32.59
2023-05-21T03:40:05.804Z,32.59
2023-05-21T03:41:05.795Z,32.61
2023-05-21T03:42:05.910Z,32.62
2023-05-21T03:43:05.798Z,32.57
2023-05-21T03:44:05.785Z,32.58
2023-05-21T03:45:05.789Z,32.59
2023-05-21T03:46:05.816Z,32.64
2023-05-21T03:47:05.749Z,32.57
2023-05-21T03:48:05.768Z,32.61
2023-05-21T03:49:05.753Z,32.58
2023-05-21T03:50:05.710Z,32.58
2023-05-21T03:51:05.721Z,32.55
2023-05-21T03:52:05.765Z,32.57
2023-05-21T03:53:05.851Z,32.51
2023-05-21T03:54:05.877Z,32.50
2023-05-21T03:55:05.902Z,32.51
2023-05-21T03:56:05.902Z,32.55
2023-05-21T03:57:05.952Z,32.54
2023-05-21T03:58:06.032Z,32.52
2023-05-21T03:59:06.049Z,32.51
2023-05-21T04:00:06.048Z,32.54
2023-05-21T04:01:06.067Z,32.50
2023-05-21T04:02:06.115Z,32.56
2023-05-21T04:03:06.266Z,32.46
2023-05-21T04:04:06.313Z,32.48
2023-05-21T04:05:06.224Z,32.49
2023-05-21T04:06:06.263Z,32.46
2023-05-21T04:07:06.295Z,32.47
2023-05-21T04:08:06.349Z,32.50
2023-05-21T04:09:06.356Z,32.44
2023-05-21T04:10:06.397Z,32.43
2023-05-21T04:11:06.413Z,32.42
2023-05-21T04:12:06.456Z,32.36
2023-05-21T04:13:06.555Z,32.25
2023-05-21T04:14:06.508Z,32.23
2023-05-21T04:15:06.541Z,32.10
2023-05-21T04:16:06.540Z,31.82
2023-05-21T04:17:06.524Z,31.48
2023-05-21T04:18:06.561Z,31.20
2023-05-21T04:19:07.149Z,30.97
2023-05-21T04:20:06.579Z,30.78
2023-05-21T04:21:06.644Z,30.60
2023-05-21T04:22:06.684Z,30.49
2023-05-21T04:23:06.753Z,30.46
2023-05-21T04:24:06.760Z,30.54
2023-05-21T04:25:06.829Z,30.61
2023-05-21T04:26:06.891Z,30.63
2023-05-21T04:27:06.932Z,30.74
2023-05-21T04:28:07.051Z,30.77
2023-05-21T04:29:07.044Z,30.84
2023-05-21T04:30:07.116Z,30.83
2023-05-21T04:31:07.145Z,30.89
2023-05-21T04:32:07.181Z,30.88
2023-05-21T04:33:07.290Z,30.86
2023-05-21T04:34:07.238Z,30.84
2023-05-21T04:35:07.302Z,30.81
2023-05-21T04:36:07.368Z,30.80
2023-05-21T04:37:07.449Z,30.78
2023-05-21T04:38:07.471Z,30.68
2023-05-21T04:39:07.528Z,30.65
2023-05-21T04:40:07.579Z,30.60
2023-05-21T04:41:07.625Z,30.58
2023-05-21T04:42:07.703Z,30.64
2023-05-21T04:43:07.763Z,30.72
2023-05-21T04:44:07.832Z,30.72
2023-05-21T04:45:07.883Z,30.78
2023-05-21T04:46:07.952Z,30.84
2023-05-21T04:47:08.089Z,30.84
2023-05-21T04:48:08.147Z,30.87
2023-05-21T04:49:08.083Z,30.87
2023-05-21T04:50:08.177Z,30.81
2023-05-21T04:51:08.226Z,30.95
2023-05-21T04:52:08.312Z,30.88
2023-05-21T04:53:08.320Z,30.88
2023-05-21T04:54:08.417Z,30.91
2023-05-21T04:55:08.462Z,30.82
2023-05-21T04:56:08.466Z,30.84
2023-05-21T04:57:08.552Z,30.83
2023-05-21T04:58:08.633Z,30.81
2023-05-21T04:59:08.655Z,30.87
2023-05-21T05:00:08.753Z,30.80
2023-05-21T05:01:08.806Z,30.85
2023-05-21T05:02:08.808Z,30.85
2023-05-21T05:03:08.983Z,30.87
2023-05-21T05:04:08.930Z,30.88
2023-05-21T05:05:08.996Z,30.82
2023-05-21T05:06:09.048Z,30.87
2023-05-21T05:07:09.111Z,30.85
2023-05-21T05:08:09.152Z,30.83
2023-05-21T05:09:09.201Z,30.85
2023-05-21T05:10:09.287Z,30.87
2023-05-21T05:11:09.335Z,30.88
2023-05-21T05:12:09.396Z,30.82
2023-05-21T05:13:09.461Z,30.85
2023-05-21T05:14:09.509Z,30.83
2023-05-21T05:15:09.574Z,30.83
2023-05-21T05:16:09.644Z,30.81
2023-05-21T05:17:09.823Z,30.80
2023-05-21T05:18:09.766Z,30.76
2023-05-21T05:19:09.836Z,30.79
2023-05-21T05:20:09.858Z,30.70
2023-05-21T05:21:09.931Z,30.79
2023-05-21T05:22:11.839Z,30.79
2023-05-21T05:23:09.964Z,30.72
2023-05-21T05:24:09.968Z,30.75
2023-05-21T05:25:09.983Z,30.75
2023-05-21T05:26:09.959Z,30.68
2023-05-21T05:27:09.944Z,30.71
2023-05-21T05:28:09.959Z,30.72
2023-05-21T05:29:09.923Z,30.72
2023-05-21T05:30:09.929Z,30.75
2023-05-21T05:31:09.935Z,30.69
2023-05-21T05:32:09.952Z,30.72
2023-05-21T05:33:09.882Z,30.71
2023-05-21T05:34:09.900Z,30.70
2023-05-21T05:35:09.899Z,30.70
2023-05-21T05:36:09.875Z,30.65
2023-05-21T05:37:09.890Z,30.72
2023-05-21T05:38:09.878Z,30.72
2023-05-21T05:39:09.857Z,30.72
2023-05-21T05:40:09.859Z,30.74
2023-05-21T05:41:09.838Z,30.75
2023-05-21T05:42:09.853Z,30.77
2023-05-21T05:43:09.865Z,30.71
2023-05-21T05:44:11.013Z,30.74
2023-05-21T05:45:09.815Z,30.68
2023-05-21T05:46:09.835Z,30.68
2023-05-21T05:47:09.824Z,30.69
2023-05-21T05:48:09.846Z,30.64
2023-05-21T05:49:09.796Z,30.63
2023-05-21T05:50:09.908Z,30.61
2023-05-21T05:51:09.764Z,30.61
2023-05-21T05:52:09.773Z,30.59
2023-05-21T05:53:09.778Z,30.55
2023-05-21T05:54:09.756Z,30.57
2023-05-21T05:55:09.738Z,30.47
2023-05-21T05:56:09.751Z,30.47
2023-05-21T05:57:09.748Z,30.42
2023-05-21T05:58:09.714Z,30.36
2023-05-21T05:59:09.745Z,30.32
2023-05-21T06:00:09.802Z,30.34
2023-05-21T06:01:09.811Z,30.28
2023-05-21T06:02:09.893Z,30.27
2023-05-21T06:03:09.932Z,30.24
2023-05-21T06:04:09.896Z,30.22
2023-05-21T06:05:09.904Z,30.20
2023-05-21T06:06:10.021Z,30.11
2023-05-21T06:07:09.949Z,30.14
2023-05-21T06:08:09.965Z,30.11
2023-05-21T06:09:09.972Z,30.12
2023-05-21T06:10:09.968Z,30.03
2023-05-21T06:11:09.962Z,30.04
2023-05-21T06:12:14.612Z,30.01
2023-05-21T06:13:10.986Z,29.93
2023-05-21T06:14:09.951Z,29.89
2023-05-21T06:15:09.939Z,29.90
2023-05-21T06:16:10.140Z,29.91
2023-05-21T06:17:09.900Z,29.84
2023-05-21T06:18:09.999Z,29.87
2023-05-21T06:19:10.002Z,29.88
2023-05-21T06:20:09.948Z,29.81
2023-05-21T06:21:09.922Z,29.87
2023-05-21T06:22:09.914Z,29.84
2023-05-21T06:23:09.917Z,29.82
2023-05-21T06:24:09.930Z,29.83
2023-05-21T06:25:09.881Z,29.79
2023-05-21T06:26:09.869Z,29.78
2023-05-21T06:27:09.882Z,29.85
2023-05-21T06:28:09.859Z,29.78
2023-05-21T06:29:09.871Z,29.78
2023-05-21T06:30:09.865Z,29.80
2023-05-21T06:31:09.893Z,29.76
2023-05-21T06:32:09.971Z,29.74
2023-05-21T06:33:10.087Z,29.75
2023-05-21T06:34:10.099Z,29.70
2023-05-21T06:35:10.125Z,29.73
2023-05-21T06:36:10.173Z,29.73
2023-05-21T06:37:10.223Z,29.71
2023-05-21T06:38:10.329Z,29.72
2023-05-21T06:39:10.373Z,29.72
2023-05-21T06:40:10.375Z,29.74
2023-05-21T06:41:10.420Z,29.75
2023-05-21T06:42:10.507Z,29.77
2023-05-21T06:43:10.482Z,29.77
2023-05-21T06:44:10.569Z,29.77
2023-05-21T06:45:10.621Z,29.78
2023-05-21T06:46:10.666Z,29.77
2023-05-21T06:47:10.734Z,29.75
2023-05-21T06:48:10.902Z,29.74
2023-05-21T06:49:12.833Z,29.74
2023-05-21T06:50:10.755Z,29.73
2023-05-21T06:51:10.828Z,29.71
2023-05-21T06:52:10.821Z,29.74
2023-05-21T06:53:10.794Z,29.79
2023-05-21T06:54:10.740Z,29.75
2023-05-21T06:55:10.755Z,29.75
2023-05-21T06:56:10.853Z,29.74
2023-05-21T06:57:10.729Z,29.79
2023-05-21T06:58:10.694Z,29.75
2023-05-21T06:59:10.710Z,29.76
2023-05-21T07:00:10.719Z,29.76
2023-05-21T07:01:10.702Z,29.76
2023-05-21T07:02:10.727Z,29.75
2023-05-21T07:03:10.758Z,29.79
2023-05-21T07:04:10.772Z,29.74
2023-05-21T07:05:10.657Z,29.76
2023-05-21T07:06:10.683Z,29.72
2023-05-21T07:07:10.659Z,29.77
2023-05-21T07:08:11.916Z,29.74
2023-05-21T07:09:10.596Z,29.73
2023-05-21T07:10:10.656Z,29.70
2023-05-21T07:11:10.624Z,29.74
2023-05-21T07:12:10.660Z,29.71
2023-05-21T07:13:10.587Z,29.71
2023-05-21T07:14:10.621Z,29.75
2023-05-21T07:15:10.621Z,29.67
2023-05-21T07:16:10.634Z,29.70
2023-05-21T07:17:10.635Z,29.71
2023-05-21T07:18:10.598Z,29.71
2023-05-21T07:19:10.614Z,29.70
2023-05-21T07:20:10.574Z,29.62
2023-05-21T07:21:10.549Z,29.62
2023-05-21T07:22:10.564Z,29.64
2023-05-21T07:23:10.551Z,29.64
2023-05-21T07:24:10.535Z,29.64
2023-05-21T07:25:10.506Z,29.66
2023-05-21T07:26:10.514Z,29.61
2023-05-21T07:27:24.808Z,29.58
2023-05-21T07:28:11.491Z,29.56
2023-05-21T07:29:10.502Z,29.55
2023-05-21T07:30:10.478Z,29.51
2023-05-21T07:31:10.505Z,29.57
2023-05-21T07:32:10.488Z,29.55
2023-05-21T07:33:10.562Z,29.49
2023-05-21T07:34:10.452Z,29.47
2023-05-21T07:35:10.479Z,29.48
2023-05-21T07:36:10.434Z,29.39
2023-05-21T07:37:10.454Z,29.39
2023-05-21T07:38:10.438Z,29.38
2023-05-21T07:39:10.434Z,29.41
2023-05-21T07:40:10.421Z,29.37
2023-05-21T07:41:10.444Z,29.34
2023-05-21T07:42:10.407Z,29.32
2023-05-21T07:43:10.409Z,29.33
2023-05-21T07:44:10.483Z,29.30
2023-05-21T07:45:10.412Z,29.29
2023-05-21T07:46:10.432Z,29.30
2023-05-21T07:47:10.390Z,29.32
2023-05-21T07:48:10.470Z,29.28
2023-05-21T07:49:10.453Z,29.24
2023-05-21T07:50:10.455Z,29.28
2023-05-21T07:51:10.556Z,29.27
2023-05-21T07:52:10.597Z,29.21
2023-05-21T07:53:10.746Z,29.19
2023-05-21T07:54:10.727Z,29.16
2023-05-21T07:55:10.798Z,29.19
2023-05-21T07:56:10.818Z,29.24
2023-05-21T07:57:10.902Z,29.21
2023-05-21T07:58:11.045Z,29.14
2023-05-21T07:59:13.747Z,29.14
2023-05-21T08:00:11.062Z,29.14
2023-05-21T08:01:11.011Z,29.11
2023-05-21T08:02:11.008Z,29.10
2023-05-21T08:03:11.070Z,29.12
2023-05-21T08:04:11.079Z,29.12
2023-05-21T08:05:11.011Z,29.13
2023-05-21T08:06:10.968Z,29.05
2023-05-21T08:07:11.056Z,29.03
2023-05-21T08:08:10.939Z,29.08
2023-05-21T08:09:10.943Z,29.07
2023-05-21T08:10:10.942Z,29.11
2023-05-21T08:11:10.925Z,29.01
2023-05-21T08:12:10.972Z,29.00
2023-05-21T08:13:10.929Z,29.00
2023-05-21T08:14:10.912Z,29.05
2023-05-21T08:15:10.904Z,28.97
2023-05-21T08:16:10.921Z,29.05
2023-05-21T08:17:10.916Z,29.02
2023-05-21T08:18:10.967Z,29.02
2023-05-21T08:19:10.916Z,29.01
2023-05-21T08:20:10.870Z,29.01
2023-05-21T08:21:10.888Z,28.95
2023-05-21T08:22:10.873Z,28.97
2023-05-21T08:23:10.901Z,28.96
2023-05-21T08:24:10.859Z,28.96
2023-05-21T08:25:10.858Z,28.90
2023-05-21T08:26:10.881Z,28.92
2023-05-21T08:27:10.871Z,28.96
2023-05-21T08:28:10.896Z,28.94
2023-05-21T08:29:10.829Z,28.88
2023-05-21T08:30:10.848Z,28.86
2023-05-21T08:31:10.805Z,28.85
2023-05-21T08:32:10.856Z,28.85
2023-05-21T08:33:10.817Z,28.83
2023-05-21T08:34:10.760Z,28.81
2023-05-21T08:35:10.759Z,28.84
2023-05-21T08:36:10.766Z,28.88
2023-05-21T08:37:10.741Z,28.85
2023-05-21T08:38:10.765Z,28.88
2023-05-21T08:39:10.749Z,28.82
2023-05-21T08:40:10.757Z,28.83
2023-05-21T08:41:10.690Z,28.78
2023-05-21T08:42:10.729Z,28.81
2023-05-21T08:43:10.777Z,28.81
2023-05-21T08:44:10.703Z,28.81
2023-05-21T08:45:10.715Z,28.78
2023-05-21T08:46:10.712Z,28.84
2023-05-21T08:47:10.702Z,28.84
2023-05-21T08:48:10.708Z,28.80
2023-05-21T08:49:10.725Z,28.76
2023-05-21T08:50:10.657Z,28.81
2023-05-21T08:51:10.658Z,28.78
2023-05-21T08:52:10.655Z,28.82
2023-05-21T08:53:19.820Z,28.80
2023-05-21T08:54:11.664Z,28.79
2023-05-21T08:55:10.668Z,28.78
2023-05-21T08:56:10.654Z,28.78
2023-05-21T08:57:10.680Z,28.83
2023-05-21T08:58:10.639Z,28.82
2023-05-21T08:59:10.598Z,28.81
2023-05-21T09:00:10.633Z,28.79
2023-05-21T09:01:10.644Z,28.82
2023-05-21T09:02:10.644Z,28.78
2023-05-21T09:03:10.812Z,28.79
2023-05-21T09:04:20.385Z,28.77
2023-05-21T09:05:11.787Z,28.74
2023-05-21T09:06:10.771Z,28.79
2023-05-21T09:07:10.806Z,28.78
2023-05-21T09:08:10.788Z,28.80
2023-05-21T09:09:10.737Z,28.76
2023-05-21T09:10:10.752Z,28.72
2023-05-21T09:11:10.773Z,28.77
2023-05-21T09:12:10.704Z,28.74
2023-05-21T09:13:10.821Z,28.79
2023-05-21T09:14:10.822Z,28.75
2023-05-21T09:15:10.936Z,28.80
2023-05-21T09:16:11.046Z,28.78
2023-05-21T09:17:11.040Z,28.80
2023-05-21T09:18:11.146Z,28.78
2023-05-21T09:19:11.172Z,28.72
2023-05-21T09:20:11.236Z,28.79
2023-05-21T09:21:11.249Z,28.72
2023-05-21T09:22:11.274Z,28.77
2023-05-21T09:23:11.349Z,28.77
2023-05-21T09:24:11.473Z,28.77
2023-05-21T09:25:11.476Z,28.78
2023-05-21T09:26:11.519Z,28.77
2023-05-21T09:27:11.568Z,28.75
2023-05-21T09:28:11.625Z,28.70
2023-05-21T09:29:11.710Z,28.78
2023-05-21T09:30:11.750Z,28.71
2023-05-21T09:31:11.826Z,28.73
2023-05-21T09:32:11.872Z,28.73
2023-05-21T09:33:11.944Z,28.76
2023-05-21T09:34:11.943Z,28.76
2023-05-21T09:35:11.931Z,28.78
2023-05-21T09:36:12.017Z,28.72
2023-05-21T09:37:23.820Z,28.76
2023-05-21T09:38:13.029Z,28.74
2023-05-21T09:39:12.012Z,28.73
2023-05-21T09:40:12.008Z,28.75
2023-05-21T09:41:12.030Z,28.73
2023-05-21T09:42:11.980Z,28.75
2023-05-21T09:43:11.977Z,28.75
2023-05-21T09:44:12.018Z,28.72
2023-05-21T09:45:12.025Z,28.74
2023-05-21T09:46:11.980Z,28.67
2023-05-21T09:47:11.966Z,28.69
2023-05-21T09:48:11.966Z,28.69
2023-05-21T09:49:11.974Z,28.68
2023-05-21T09:50:12.004Z,28.75
2023-05-21T09:51:12.022Z,28.70
2023-05-21T09:52:12.106Z,28.75
2023-05-21T09:53:12.177Z,28.70
2023-05-21T09:54:12.186Z,28.70
2023-05-21T09:55:12.176Z,28.70
2023-05-21T09:56:12.213Z,28.72
2023-05-21T09:57:12.235Z,28.64
2023-05-21T09:58:12.320Z,28.66
2023-05-21T09:59:12.326Z,28.70
2023-05-21T10:00:12.345Z,28.76
2023-05-21T10:01:12.332Z,28.74
2023-05-21T10:02:12.450Z,28.77
2023-05-21T10:03:12.543Z,28.73
2023-05-21T10:04:12.489Z,28.76
2023-05-21T10:05:12.477Z,28.75
2023-05-21T10:06:12.502Z,28.75
2023-05-21T10:07:12.510Z,28.72
2023-05-21T10:08:12.575Z,28.79
2023-05-21T10:09:12.589Z,28.82
2023-05-21T10:10:12.611Z,28.77
2023-05-21T10:11:12.614Z,28.79
2023-05-21T10:12:12.635Z,28.79
2023-05-21T10:13:12.665Z,28.78
2023-05-21T10:14:12.653Z,28.75
2023-05-21T10:15:12.741Z,28.75
2023-05-21T10:16:12.841Z,28.79
2023-05-21T10:17:12.774Z,28.79
2023-05-21T10:18:12.821Z,28.75
2023-05-21T10:19:12.914Z,28.75
2023-05-21T10:20:12.857Z,28.78
2023-05-21T10:21:12.877Z,28.75
2023-05-21T10:22:12.901Z,28.72
2023-05-21T10:23:12.987Z,28.76
2023-05-21T10:24:12.943Z,28.73
2023-05-21T10:25:12.935Z,28.78
2023-05-21T10:26:13.033Z,28.78
2023-05-21T10:27:13.011Z,28.84
2023-05-21T10:28:13.023Z,28.85
2023-05-21T10:29:13.024Z,28.75
2023-05-21T10:30:13.036Z,28.83
2023-05-21T10:31:13.063Z,28.78
2023-05-21T10:32:13.125Z,28.82
2023-05-21T10:33:13.117Z,28.77
2023-05-21T10:34:13.100Z,28.83
2023-05-21T10:35:13.090Z,28.73
2023-05-21T10:36:13.175Z,28.79
2023-05-21T10:37:13.163Z,28.80
2023-05-21T10:38:13.211Z,28.76
2023-05-21T10:39:13.150Z,28.72
2023-05-21T10:40:13.211Z,28.77
2023-05-21T10:41:13.217Z,28.79
2023-05-21T10:42:13.179Z,28.74
2023-05-21T10:43:13.200Z,28.79
2023-05-21T10:44:13.256Z,28.77
2023-05-21T10:45:13.254Z,28.84
2023-05-21T10:46:13.373Z,28.83
2023-05-21T10:47:13.263Z,28.82
2023-05-21T10:48:13.335Z,28.85
2023-05-21T10:49:13.305Z,28.83
2023-05-21T10:50:13.357Z,28.87
2023-05-21T10:51:13.323Z,28.84
2023-05-21T10:52:13.325Z,28.91
2023-05-21T10:53:13.363Z,28.89
2023-05-21T10:54:13.340Z,28.93
2023-05-21T10:55:13.375Z,28.93
2023-05-21T10:56:13.374Z,28.99
2023-05-21T10:57:13.414Z,28.94
2023-05-21T10:58:13.443Z,28.93
2023-05-21T10:59:13.427Z,28.92
2023-05-21T11:00:13.463Z,28.94
2023-05-21T11:01:13.525Z,28.93
2023-05-21T11:02:13.472Z,28.97
2023-05-21T11:03:13.692Z,28.96
2023-05-21T11:04:13.529Z,29.00
2023-05-21T11:05:13.509Z,28.99
2023-05-21T11:06:13.530Z,28.99
2023-05-21T11:07:13.541Z,28.92
2023-05-21T11:08:13.615Z,28.96
2023-05-21T11:09:13.605Z,28.96
2023-05-21T11:10:13.582Z,28.97
2023-05-21T11:11:13.594Z,29.00
2023-05-21T11:12:13.638Z,28.94
2023-05-21T11:13:13.636Z,28.96
2023-05-21T11:14:13.635Z,29.00
2023-05-21T11:15:13.653Z,28.94
2023-05-21T11:16:13.639Z,28.99
2023-05-21T11:17:13.869Z,28.98
2023-05-21T11:18:13.669Z,28.97
2023-05-21T11:19:13.728Z,28.99
2023-05-21T11:20:13.784Z,28.96
2023-05-21T11:21:13.700Z,28.93
2023-05-21T11:22:13.715Z,28.95
2023-05-21T11:23:13.709Z,28.98
2023-05-21T11:24:13.719Z,29.00
2023-05-21T11:25:13.702Z,28.95
2023-05-21T11:26:13.734Z,28.97
2023-05-21T11:27:13.750Z,28.95
2023-05-21T11:28:13.752Z,28.97
2023-05-21T11:29:13.697Z,28.95
2023-05-21T11:30:13.762Z,28.90
2023-05-21T11:31:13.765Z,28.98
2023-05-21T11:32:13.761Z,28.95
2023-05-21T11:33:14.218Z,28.91
2023-05-21T11:34:13.765Z,28.93
2023-05-21T11:35:13.760Z,28.95
2023-05-21T11:36:13.734Z,28.97
2023-05-21T11:37:13.769Z,28.94
2023-05-21T11:38:13.788Z,29.01
2023-05-21T11:39:13.727Z,28.95
2023-05-21T11:40:13.765Z,28.94
2023-05-21T11:41:13.761Z,28.93
2023-05-21T11:42:13.734Z,28.94
2023-05-21T11:43:13.733Z,28.96
2023-05-21T11:44:13.736Z,28.97
2023-05-21T11:45:13.822Z,28.91
2023-05-21T11:46:13.752Z,28.91
2023-05-21T11:47:13.783Z,28.91
2023-05-21T11:48:13.789Z,28.88
2023-05-21T11:49:13.725Z,28.88
2023-05-21T11:50:13.836Z,28.85
2023-05-21T11:51:13.757Z,28.90
2023-05-21T11:52:13.766Z,28.85
2023-05-21T11:53:13.693Z,28.85
2023-05-21T11:54:13.702Z,28.83
2023-05-21T11:55:13.740Z,28.83
2023-05-21T11:56:13.728Z,28.88
2023-05-21T11:57:13.744Z,28.86
2023-05-21T11:58:13.792Z,28.86
2023-05-21T11:59:13.738Z,28.88
2023-05-21T12:00:13.780Z,28.90
2023-05-21T12:01:13.754Z,28.92
2023-05-21T12:02:13.770Z,28.90
2023-05-21T12:03:13.842Z,28.96
2023-05-21T12:04:13.759Z,28.96
2023-05-21T12:05:13.779Z,28.97
2023-05-21T12:06:13.824Z,28.99
2023-05-21T12:07:13.731Z,28.97
2023-05-21T12:08:13.764Z,28.97
2023-05-21T12:09:13.787Z,28.97
2023-05-21T12:10:13.733Z,28.97
2023-05-21T12:11:13.767Z,29.01
2023-05-21T12:12:13.760Z,29.01
2023-05-21T12:13:13.736Z,29.07
2023-05-21T12:14:13.804Z,29.07
2023-05-21T12:15:13.815Z,29.04
2023-05-21T12:16:13.789Z,29.09
2023-05-21T12:17:13.764Z,29.05
2023-05-21T12:18:13.823Z,29.10
2023-05-21T12:19:13.782Z,29.07
2023-05-21T12:20:13.699Z,29.05
2023-05-21T12:21:13.759Z,29.07
2023-05-21T12:22:13.728Z,28.99
2023-05-21T12:23:13.737Z,29.02
2023-05-21T12:24:13.756Z,28.95
2023-05-21T12:25:13.701Z,28.99
2023-05-21T12:26:13.768Z,28.98
2023-05-21T12:27:13.767Z,28.95
2023-05-21T12:28:13.705Z,28.92
2023-05-21T12:29:13.737Z,28.91
2023-05-21T12:30:13.729Z,28.91
2023-05-21T12:31:13.741Z,28.95
2023-05-21T12:32:13.871Z,28.92
2023-05-21T12:33:13.779Z,28.92
2023-05-21T12:34:13.831Z,28.91
2023-05-21T12:35:13.875Z,28.88
2023-05-21T12:36:13.847Z,28.91
2023-05-21T12:37:13.891Z,28.91
2023-05-21T12:38:13.949Z,28.95
2023-05-21T12:39:13.954Z,28.93
2023-05-21T12:40:13.974Z,28.87
2023-05-21T12:41:14.042Z,28.91
2023-05-21T12:42:14.027Z,28.91
2023-05-21T12:43:14.034Z,28.97
2023-05-21T12:44:14.104Z,28.87
2023-05-21T12:45:14.117Z,28.93
2023-05-21T12:46:14.182Z,28.87
2023-05-21T12:47:14.163Z,28.88
2023-05-21T12:48:14.140Z,28.94
2023-05-21T12:49:14.204Z,28.93
2023-05-21T12:50:14.273Z,28.93
2023-05-21T12:51:14.259Z,28.91
2023-05-21T12:52:14.306Z,28.96